createdAt,value
2017-12-22T00:02:10.955Z,102951.09
2017-12-22T00:04:36.724Z,102954.63
2017-12-22T00:07:02.480Z,102947.98
2017-12-22T00:09:28.235Z,102932.18
2017-12-22T00:11:54.660Z,102937.02
2017-12-22T00:14:20.425Z,102925.59
2017-12-22T00:16:46.197Z,102921.64
2017-12-22T00:19:11.964Z,102917.66
2017-12-22T00:21:37.731Z,102918.59
2017-12-22T00:24:03.490Z,102923.41
2017-12-22T00:26:29.259Z,102925.59
2017-12-22T00:28:55.011Z,102928.26
2017-12-22T00:31:20.760Z,102920.33
2017-12-22T00:33:46.508Z,102919.47
2017-12-22T00:36:12.272Z,102912.46
2017-12-22T00:38:38.043Z,102919.02
2017-12-22T00:41:03.829Z,102912.38
2017-12-22T00:43:29.580Z,102918.95
2017-12-22T00:46:01.471Z,102915.88
2017-12-22T00:48:27.217Z,102908.48
2017-12-22T00:50:52.984Z,102899.27
2017-12-22T00:53:18.748Z,102903.61
2017-12-22T00:55:44.526Z,102897.47
2017-12-22T00:58:10.617Z,102899.23
2017-12-22T01:00:36.384Z,102892.66
2017-12-22T01:03:02.168Z,102890.50
2017-12-22T01:05:27.944Z,102884.70
2017-12-22T01:07:53.708Z,102881.59
2017-12-22T01:10:19.470Z,102884.70
2017-12-22T01:12:45.232Z,102892.62
2017-12-22T01:15:11.011Z,102895.70
2017-12-22T01:17:42.836Z,102893.08
2017-12-22T01:20:08.595Z,102903.66
2017-12-22T01:22:34.363Z,102899.66
2017-12-22T01:25:00.120Z,102908.45
2017-12-22T01:27:25.896Z,102904.02
2017-12-22T01:29:52.784Z,102911.47
2017-12-22T01:32:18.547Z,102912.38
2017-12-22T01:34:44.379Z,102911.53
2017-12-22T01:37:10.184Z,102916.35
2017-12-22T01:39:35.952Z,102923.35
2017-12-22T01:42:01.733Z,102919.79
2017-12-22T01:44:27.498Z,102925.98
2017-12-22T01:46:53.272Z,102929.48
2017-12-22T01:49:19.358Z,102925.95
2017-12-22T01:51:45.097Z,102929.88
2017-12-22T01:54:10.952Z,102926.34
2017-12-22T01:56:36.752Z,102927.63
2017-12-22T01:59:02.524Z,102930.71
2017-12-22T02:01:28.293Z,102931.55
2017-12-22T02:03:54.066Z,102931.58
2017-12-22T02:06:19.806Z,102932.45
2017-12-22T02:08:45.587Z,102928.47
2017-12-22T02:11:11.347Z,102933.28
2017-12-22T02:13:37.108Z,102932.77
2017-12-22T02:16:02.871Z,102922.66
2017-12-22T02:18:28.632Z,102922.59
2017-12-22T02:20:54.405Z,102915.56
2017-12-22T02:23:20.187Z,102918.16
2017-12-22T02:25:45.971Z,102919.87
2017-12-22T02:28:11.727Z,102915.47
2017-12-22T02:30:37.470Z,102916.34
2017-12-22T02:33:03.220Z,102913.23
2017-12-22T02:35:28.985Z,102912.30
2017-12-22T02:37:54.739Z,102906.52
2017-12-22T02:40:20.509Z,102903.05
2017-12-22T02:42:46.261Z,102902.16
2017-12-22T02:45:12.040Z,102891.59
2017-12-22T02:47:37.825Z,102901.70
2017-12-22T02:50:03.593Z,102904.75
2017-12-22T02:52:29.349Z,102917.95
2017-12-22T02:54:55.100Z,102917.95
2017-12-22T02:57:20.847Z,102914.86
2017-12-22T02:59:46.604Z,102931.13
2017-12-22T03:02:12.364Z,102931.14
2017-12-22T03:04:38.128Z,102932.91
2017-12-22T03:07:03.884Z,102930.72
2017-12-22T03:09:29.648Z,102936.84
2017-12-22T03:11:55.425Z,102935.53
2017-12-22T03:14:21.175Z,102938.16
2017-12-22T03:16:46.932Z,102937.75
2017-12-22T03:19:12.691Z,102936.85
2017-12-22T03:21:38.452Z,102937.27
2017-12-22T03:24:04.215Z,102933.73
2017-12-22T03:26:29.966Z,102939.00
2017-12-22T03:28:55.711Z,102939.00
2017-12-22T03:31:21.476Z,102951.77
2017-12-22T03:33:47.226Z,102947.83
2017-12-22T03:36:12.988Z,102947.34
2017-12-22T03:38:38.739Z,102953.05
2017-12-22T03:41:04.499Z,102949.52
2017-12-22T03:43:30.251Z,102937.23
2017-12-22T03:45:56.004Z,102936.78
2017-12-22T03:48:21.750Z,102931.55
2017-12-22T03:50:47.488Z,102942.43
2017-12-22T03:53:13.252Z,102938.39
2017-12-22T03:55:38.991Z,102940.09
2017-12-22T03:58:04.752Z,102941.81
2017-12-22T04:00:30.503Z,102938.28
2017-12-22T04:02:56.254Z,102943.48
2017-12-22T04:05:21.979Z,102941.30
2017-12-22T04:07:47.725Z,102937.73
2017-12-22T04:10:13.487Z,102941.20
2017-12-22T04:12:39.251Z,102949.86
2017-12-22T04:15:05.011Z,102947.19
2017-12-22T04:17:30.756Z,102947.54
2017-12-22T04:19:56.497Z,102944.02
2017-12-22T04:22:22.239Z,102943.94
2017-12-22T04:24:47.985Z,102945.67
2017-12-22T04:27:13.727Z,102946.92
2017-12-22T04:29:39.466Z,102945.98
2017-12-22T04:32:05.219Z,102943.31
2017-12-22T04:34:30.955Z,102939.71
2017-12-22T04:36:56.694Z,102941.45
2017-12-22T04:39:22.439Z,102935.28
2017-12-22T04:41:48.195Z,102933.97
2017-12-22T04:44:14.605Z,102932.03
2017-12-22T04:46:40.359Z,102946.94
2017-12-22T04:49:06.128Z,102942.84
2017-12-22T04:51:31.871Z,102957.23
2017-12-22T04:53:57.631Z,102963.33
2017-12-22T04:56:23.372Z,102965.92
2017-12-22T04:58:49.128Z,102963.21
2017-12-22T05:01:14.867Z,102968.87
2017-12-22T05:03:40.624Z,102963.92
2017-12-22T05:06:06.375Z,102963.48
2017-12-22T05:08:32.118Z,102962.16
2017-12-22T05:10:57.872Z,102955.59
2017-12-22T05:13:23.630Z,102954.20
2017-12-22T05:15:49.392Z,102951.20
2017-12-22T05:18:15.126Z,102959.13
2017-12-22T05:20:40.858Z,102967.05
2017-12-22T05:23:06.579Z,102968.80
2017-12-22T05:25:32.322Z,102966.11
2017-12-22T05:27:58.076Z,102958.67
2017-12-22T05:30:23.835Z,102955.14
2017-12-22T05:32:49.575Z,102953.41
2017-12-22T05:35:15.339Z,102958.63
2017-12-22T05:37:41.078Z,102952.13
2017-12-22T05:40:06.843Z,102951.69
2017-12-22T05:42:32.600Z,102950.82
2017-12-22T05:44:58.360Z,102947.36
2017-12-22T05:47:24.120Z,102953.08
2017-12-22T05:49:49.893Z,102952.25
2017-12-22T05:52:15.643Z,102952.73
2017-12-22T05:54:41.401Z,102954.95
2017-12-22T05:57:07.165Z,102954.95
2017-12-22T05:59:32.914Z,102958.44
2017-12-22T06:01:58.671Z,102959.76
2017-12-22T06:04:24.443Z,102957.66
2017-12-22T06:06:50.204Z,102953.30
2017-12-22T06:09:15.955Z,102959.00
2017-12-22T06:11:41.703Z,102955.92
2017-12-22T06:14:07.453Z,102955.89
2017-12-22T06:16:33.215Z,102962.50
2017-12-22T06:18:58.967Z,102966.48
2017-12-22T06:21:24.722Z,102963.81
2017-12-22T06:23:50.471Z,102959.42
2017-12-22T06:26:16.235Z,102954.98
2017-12-22T06:28:41.988Z,102961.56
2017-12-22T06:31:07.743Z,102955.44
2017-12-22T06:33:33.502Z,102948.86
2017-12-22T06:35:59.262Z,102961.97
2017-12-22T06:38:25.028Z,102951.95
2017-12-22T06:40:50.797Z,102953.67
2017-12-22T06:43:16.560Z,102955.02
2017-12-22T06:45:42.318Z,102954.12
2017-12-22T06:48:08.094Z,102959.30
2017-12-22T06:50:33.848Z,102965.87
2017-12-22T06:52:59.616Z,102959.72
2017-12-22T06:55:25.385Z,102973.65
2017-12-22T06:57:51.164Z,102972.34
2017-12-22T07:00:16.920Z,102959.12
2017-12-22T07:02:42.682Z,102965.16
2017-12-22T07:05:08.436Z,102968.24
2017-12-22T07:07:34.214Z,102980.90
2017-12-22T07:09:59.962Z,102980.07
2017-12-22T07:12:25.743Z,102981.80
2017-12-22T07:14:51.499Z,102977.78
2017-12-22T07:17:17.277Z,102985.25
2017-12-22T07:19:43.030Z,102980.37
2017-12-22T07:22:08.800Z,102976.84
2017-12-22T07:24:34.558Z,102981.16
2017-12-22T07:27:00.317Z,102988.14
2017-12-22T07:29:26.084Z,102982.87
2017-12-22T07:31:51.831Z,102984.23
2017-12-22T07:34:17.587Z,102984.12
2017-12-22T07:36:43.355Z,102985.47
2017-12-22T07:39:09.131Z,102984.16
2017-12-22T07:41:34.902Z,102987.72
2017-12-22T07:44:00.672Z,102986.03
2017-12-22T07:46:26.445Z,102990.47
2017-12-22T07:48:52.212Z,102992.27
2017-12-22T07:51:17.950Z,102990.13
2017-12-22T07:53:43.707Z,102994.98
2017-12-22T07:56:09.484Z,102986.16
2017-12-22T07:58:35.247Z,102997.57
2017-12-22T08:01:01.016Z,103000.69
2017-12-22T08:03:26.796Z,103005.53
2017-12-22T08:05:52.559Z,103003.88
2017-12-22T08:08:18.327Z,103006.55
2017-12-22T08:10:44.095Z,103013.95
2017-12-22T08:13:09.859Z,103016.53
2017-12-22T08:15:35.627Z,103021.83
2017-12-22T08:18:01.382Z,103024.05
2017-12-22T08:20:27.158Z,103025.28
2017-12-22T08:22:52.909Z,103041.95
2017-12-22T08:25:18.666Z,103049.96
2017-12-22T08:27:44.426Z,103055.22
2017-12-22T08:30:10.182Z,103065.20
2017-12-22T08:32:35.960Z,103061.14
2017-12-22T08:35:01.725Z,103072.52
2017-12-22T08:37:27.499Z,103077.93
2017-12-22T08:39:53.252Z,103102.05
2017-12-22T08:42:19.026Z,103109.07
2017-12-22T08:44:44.775Z,103111.29
2017-12-22T08:47:10.518Z,103105.58
2017-12-22T08:49:36.264Z,103099.05
2017-12-22T08:52:02.037Z,103103.44
2017-12-22T08:54:27.775Z,103105.21
2017-12-22T08:56:53.544Z,103102.58
2017-12-22T08:59:19.296Z,103092.55
2017-12-22T09:01:45.035Z,103097.44
2017-12-22T09:04:10.783Z,103116.75
2017-12-22T09:06:36.519Z,103116.09
2017-12-22T09:09:02.284Z,103110.05
2017-12-22T09:11:28.039Z,103108.81
2017-12-22T09:13:53.786Z,103101.83
2017-12-22T09:16:19.519Z,103122.58
2017-12-22T09:18:45.266Z,103114.91
2017-12-22T09:21:10.991Z,103107.55
2017-12-22T09:23:36.746Z,103107.78
2017-12-22T09:26:02.499Z,103106.50
2017-12-22T09:28:28.255Z,103102.97
2017-12-22T09:30:54.009Z,103107.84
2017-12-22T09:33:19.759Z,103107.02
2017-12-22T09:35:45.486Z,103109.55
2017-12-22T09:38:11.231Z,103121.73
2017-12-22T09:40:36.987Z,103125.94
2017-12-22T09:43:09.783Z,103136.98
2017-12-22T09:45:35.532Z,103131.31
2017-12-22T09:48:01.329Z,103130.67
2017-12-22T09:50:27.060Z,103129.32
2017-12-22T09:52:52.808Z,103119.36
2017-12-22T09:55:18.558Z,103115.00
2017-12-22T09:57:44.369Z,103118.80
2017-12-22T10:00:10.096Z,103114.96
2017-12-22T10:02:35.846Z,103102.70
2017-12-22T10:05:01.587Z,103106.20
2017-12-22T10:07:27.331Z,103107.14
2017-12-22T10:09:53.085Z,103104.47
2017-12-22T10:12:18.831Z,103110.22
2017-12-22T10:14:44.580Z,103113.16
2017-12-22T10:17:10.321Z,103122.41
2017-12-22T10:19:36.082Z,103115.34
2017-12-22T10:22:01.836Z,103115.30
2017-12-22T10:24:27.596Z,103110.52
2017-12-22T10:26:53.347Z,103099.10
2017-12-22T10:29:19.087Z,103105.72
2017-12-22T10:31:44.844Z,103103.01
2017-12-22T10:34:10.586Z,103103.42
2017-12-22T10:36:36.344Z,103095.04
2017-12-22T10:39:02.107Z,103091.95
2017-12-22T10:41:27.897Z,103096.88
2017-12-22T10:43:53.649Z,103093.80
2017-12-22T10:46:19.420Z,103093.27
2017-12-22T10:48:45.195Z,103094.13
2017-12-22T10:51:10.960Z,103102.89
2017-12-22T10:53:36.719Z,103109.51
2017-12-22T10:56:02.487Z,103106.42
2017-12-22T10:58:28.227Z,103110.00
2017-12-22T11:00:54.006Z,103110.41
2017-12-22T11:03:19.786Z,103113.56
2017-12-22T11:05:45.541Z,103111.50
2017-12-22T11:08:11.325Z,103112.97
2017-12-22T11:10:37.491Z,103122.66
2017-12-22T11:13:03.255Z,103119.80
2017-12-22T11:15:29.027Z,103116.45
2017-12-22T11:17:54.787Z,103113.41
2017-12-22T11:20:20.556Z,103098.33
2017-12-22T11:22:46.327Z,103099.38
2017-12-22T11:25:12.093Z,103101.18
2017-12-22T11:27:37.846Z,103094.98
2017-12-22T11:30:03.603Z,103083.69
2017-12-22T11:32:29.377Z,103084.00
2017-12-22T11:34:55.131Z,103092.27
2017-12-22T11:37:20.905Z,103084.83
2017-12-22T11:39:46.662Z,103082.72
2017-12-22T11:42:12.432Z,103087.56
2017-12-22T11:44:38.187Z,103083.20
2017-12-22T11:47:03.944Z,103091.45
2017-12-22T11:49:29.684Z,103092.38
2017-12-22T11:51:55.411Z,103093.32
2017-12-22T11:54:21.175Z,103085.00
2017-12-22T11:56:46.920Z,103077.97
2017-12-22T11:59:12.671Z,103079.84
2017-12-22T12:01:38.411Z,103082.48
2017-12-22T12:04:04.174Z,103077.59
2017-12-22T12:06:29.910Z,103078.94
2017-12-22T12:08:55.669Z,103085.48
2017-12-22T12:11:21.412Z,103084.77
2017-12-22T12:13:47.155Z,103085.48
2017-12-22T12:16:12.901Z,103085.55
2017-12-22T12:18:38.646Z,103082.33
2017-12-22T12:21:04.420Z,103080.47
2017-12-22T12:23:30.188Z,103068.69
2017-12-22T12:25:55.926Z,103067.41
2017-12-22T12:28:21.693Z,103074.75
2017-12-22T12:30:47.431Z,103070.48
2017-12-22T12:33:13.175Z,103073.81
2017-12-22T12:35:38.931Z,103072.08
2017-12-22T12:38:04.670Z,103073.57
2017-12-22T12:40:30.444Z,103067.69
2017-12-22T12:42:56.216Z,103069.80
2017-12-22T12:45:21.988Z,103071.49
2017-12-22T12:47:47.738Z,103074.30
2017-12-22T12:50:13.488Z,103078.05
2017-12-22T12:52:39.252Z,103075.83
2017-12-22T12:55:05.042Z,103078.31
2017-12-22T12:57:30.799Z,103079.70
2017-12-22T12:59:56.903Z,103083.63
2017-12-22T13:02:22.684Z,103086.18
2017-12-22T13:04:48.443Z,103089.27
2017-12-22T13:07:14.232Z,103094.11
2017-12-22T13:09:40.015Z,103082.72
2017-12-22T13:12:05.811Z,103077.00
2017-12-22T13:14:31.640Z,103077.27
2017-12-22T13:16:57.427Z,103076.00
2017-12-22T13:19:23.188Z,103064.50
2017-12-22T13:21:48.992Z,103064.50
2017-12-22T13:24:14.748Z,103061.34
2017-12-22T13:26:40.536Z,103056.87
2017-12-22T13:29:06.328Z,103068.79
2017-12-22T13:31:32.115Z,103062.21
2017-12-22T13:33:57.871Z,103061.20
2017-12-22T13:36:23.622Z,103067.22
2017-12-22T13:38:49.400Z,103066.77
2017-12-22T13:41:15.161Z,103070.30
2017-12-22T13:43:40.939Z,103081.28
2017-12-22T13:46:06.695Z,103076.77
2017-12-22T13:48:32.556Z,103085.00
2017-12-22T13:50:58.479Z,103076.59
2017-12-22T13:53:24.220Z,103077.83
2017-12-22T13:55:49.967Z,103070.84
2017-12-22T13:58:15.720Z,103065.12
2017-12-22T14:00:42.286Z,103066.37
2017-12-22T14:03:08.844Z,103062.23
2017-12-22T14:05:35.675Z,103067.41
2017-12-22T14:08:02.600Z,103074.03
2017-12-22T14:10:28.474Z,103073.87
2017-12-22T14:12:55.154Z,103064.64
2017-12-22T14:15:21.868Z,103068.42
2017-12-22T14:17:48.721Z,103056.52
2017-12-22T14:20:15.481Z,103059.59
2017-12-22T14:22:42.392Z,103067.70
2017-12-22T14:25:08.191Z,103071.19
2017-12-22T14:27:34.820Z,103089.06
2017-12-22T14:30:01.602Z,103091.98
2017-12-22T14:32:28.275Z,103093.59
2017-12-22T14:34:55.234Z,103096.13
2017-12-22T14:37:21.743Z,103092.89
2017-12-22T14:39:48.388Z,103095.19
2017-12-22T14:42:15.341Z,103090.59
2017-12-22T14:44:41.639Z,103094.36
2017-12-22T14:47:07.444Z,103099.12
2017-12-22T14:49:33.236Z,103105.64
2017-12-22T14:51:59.041Z,103102.89
2017-12-22T14:54:25.176Z,103097.59
2017-12-22T14:56:51.019Z,103096.28
2017-12-22T14:59:23.860Z,103099.11
2017-12-22T15:01:49.632Z,103106.78
2017-12-22T15:04:15.423Z,103097.85
2017-12-22T15:06:42.262Z,103099.58
2017-12-22T15:09:08.072Z,103105.73
2017-12-22T15:11:33.890Z,103094.64
2017-12-22T15:13:59.647Z,103093.70
2017-12-22T15:16:25.484Z,103093.34
2017-12-22T15:18:51.284Z,103098.41
2017-12-22T15:21:17.415Z,103093.97
2017-12-22T15:23:43.241Z,103090.48
2017-12-22T15:26:09.284Z,103084.59
2017-12-22T15:28:35.031Z,103079.25
2017-12-22T15:31:00.797Z,103072.55
2017-12-22T15:33:26.562Z,103083.31
2017-12-22T15:35:52.423Z,103091.40
2017-12-22T15:38:18.230Z,103088.58
2017-12-22T15:40:44.004Z,103083.50
2017-12-22T15:43:09.764Z,103088.69
2017-12-22T15:45:35.581Z,103089.05
2017-12-22T15:48:01.303Z,103093.48
2017-12-22T15:50:27.067Z,103087.02
2017-12-22T15:52:52.836Z,103080.37
2017-12-22T15:55:18.596Z,103075.59
2017-12-22T15:57:44.387Z,103076.40
2017-12-22T16:00:10.148Z,103082.95
2017-12-22T16:02:35.911Z,103086.39
2017-12-22T16:05:01.701Z,103092.78
2017-12-22T16:07:27.454Z,103105.59
2017-12-22T16:09:53.210Z,103102.02
2017-12-22T16:12:18.975Z,103093.90
2017-12-22T16:14:44.750Z,103095.70
2017-12-22T16:17:10.514Z,103089.91
2017-12-22T16:19:36.279Z,103086.79
2017-12-22T16:22:02.054Z,103082.84
2017-12-22T16:24:27.804Z,103076.86
2017-12-22T16:26:53.556Z,103081.45
2017-12-22T16:29:19.315Z,103075.34
2017-12-22T16:31:45.081Z,103062.08
2017-12-22T16:34:10.839Z,103062.42
2017-12-22T16:36:36.590Z,103071.16
2017-12-22T16:39:02.386Z,103077.66
2017-12-22T16:41:28.143Z,103081.24
2017-12-22T16:43:53.906Z,103079.73
2017-12-22T16:46:19.655Z,103085.13
2017-12-22T16:48:45.404Z,103084.55
2017-12-22T16:51:11.143Z,103084.86
2017-12-22T16:53:36.891Z,103087.37
2017-12-22T16:56:02.639Z,103090.00
2017-12-22T16:58:28.379Z,103103.50
2017-12-22T17:00:54.122Z,103108.13
2017-12-22T17:03:19.890Z,103108.08
2017-12-22T17:05:45.640Z,103114.18
2017-12-22T17:08:11.390Z,103115.41
2017-12-22T17:10:37.911Z,103122.30
2017-12-22T17:13:03.671Z,103124.18
2017-12-22T17:15:29.407Z,103119.42
2017-12-22T17:17:55.154Z,103125.53
2017-12-22T17:20:20.904Z,103117.86
2017-12-22T17:22:46.644Z,103119.27
2017-12-22T17:25:12.406Z,103120.25
2017-12-22T17:27:38.143Z,103118.47
2017-12-22T17:30:03.904Z,103123.55
2017-12-22T17:32:29.636Z,103117.52
2017-12-22T17:34:55.382Z,103122.05
2017-12-22T17:37:21.134Z,103120.08
2017-12-22T17:39:47.770Z,103126.75
2017-12-22T17:42:13.584Z,103127.00
2017-12-22T17:44:39.335Z,103114.42
2017-12-22T17:47:05.081Z,103112.02
2017-12-22T17:49:30.827Z,103117.16
2017-12-22T17:51:56.572Z,103112.36
2017-12-22T17:54:22.320Z,103114.82
2017-12-22T17:56:48.055Z,103109.69
2017-12-22T17:59:13.829Z,103109.98
2017-12-22T18:01:39.584Z,103105.55
2017-12-22T18:04:05.337Z,103110.89
2017-12-22T18:06:31.103Z,103118.52
2017-12-22T18:08:56.855Z,103123.12
2017-12-22T18:11:22.640Z,103132.29
2017-12-22T18:13:48.387Z,103131.16
2017-12-22T18:16:14.134Z,103117.88
2017-12-22T18:18:39.883Z,103109.64
2017-12-22T18:21:05.639Z,103110.15
2017-12-22T18:23:31.401Z,103105.53
2017-12-22T18:25:57.151Z,103102.80
2017-12-22T18:28:22.903Z,103100.75
2017-12-22T18:30:48.664Z,103094.77
2017-12-22T18:33:14.401Z,103094.94
2017-12-22T18:35:40.146Z,103092.53
2017-12-22T18:38:05.891Z,103101.06
2017-12-22T18:40:31.664Z,103102.76
2017-12-22T18:42:57.423Z,103104.53
2017-12-22T18:45:23.175Z,103108.78
2017-12-22T18:47:48.911Z,103115.60
2017-12-22T18:50:14.649Z,103114.63
2017-12-22T18:52:40.404Z,103122.89
2017-12-22T18:55:06.151Z,103121.63
2017-12-22T18:57:31.898Z,103120.68
2017-12-22T18:59:57.654Z,103122.78
2017-12-22T19:02:23.411Z,103112.19
2017-12-22T19:04:49.160Z,103111.45
2017-12-22T19:07:14.910Z,103109.84
2017-12-22T19:09:40.666Z,103119.52
2017-12-22T19:12:06.415Z,103119.97
2017-12-22T19:14:32.159Z,103123.02
2017-12-22T19:16:57.923Z,103129.38
2017-12-22T19:19:23.686Z,103124.93
2017-12-22T19:21:49.447Z,103126.07
2017-12-22T19:24:15.179Z,103124.87
2017-12-22T19:26:40.936Z,103125.92
2017-12-22T19:29:06.692Z,103122.54
2017-12-22T19:31:32.483Z,103111.61
2017-12-22T19:33:58.232Z,103109.75
2017-12-22T19:36:23.978Z,103107.94
2017-12-22T19:38:49.715Z,103090.30
2017-12-22T19:41:15.472Z,103095.14
2017-12-22T19:43:41.232Z,103099.22
2017-12-22T19:46:06.990Z,103106.62
2017-12-22T19:48:32.751Z,103107.59
2017-12-22T19:50:58.495Z,103100.69
2017-12-22T19:53:24.256Z,103102.00
2017-12-22T19:55:50.004Z,103095.75
2017-12-22T19:58:15.762Z,103098.47
2017-12-22T20:00:41.502Z,103100.23
2017-12-22T20:03:19.564Z,103093.73
2017-12-22T20:05:45.290Z,103083.39
2017-12-22T20:08:11.039Z,103091.42
2017-12-22T20:10:36.791Z,103096.25
2017-12-22T20:13:02.559Z,103098.92
2017-12-22T20:15:28.311Z,103106.13
2017-12-22T20:17:54.091Z,103108.86
2017-12-22T20:20:19.892Z,103110.84
2017-12-22T20:22:45.644Z,103085.28
2017-12-22T20:25:11.405Z,103094.13
2017-12-22T20:27:37.179Z,103098.97
2017-12-22T20:30:03.019Z,103107.20
2017-12-22T20:32:28.768Z,103103.02
2017-12-22T20:34:54.515Z,103097.27
2017-12-22T20:37:20.263Z,103086.03
2017-12-22T20:39:45.999Z,103075.45
2017-12-22T20:42:11.744Z,103075.14
2017-12-22T20:44:37.483Z,103076.09
2017-12-22T20:47:03.216Z,103073.12
2017-12-22T20:49:28.963Z,103068.07
2017-12-22T20:51:54.826Z,103065.55
2017-12-22T20:54:20.588Z,103069.48
2017-12-22T20:56:46.344Z,103078.26
2017-12-22T20:59:12.102Z,103078.21
2017-12-22T21:01:37.856Z,103076.03
2017-12-22T21:04:03.600Z,103072.11
2017-12-22T21:06:29.338Z,103079.93
2017-12-22T21:08:55.075Z,103077.70
2017-12-22T21:11:20.828Z,103078.56
2017-12-22T21:13:46.563Z,103083.36
2017-12-22T21:16:12.315Z,103093.99
2017-12-22T21:18:38.051Z,103095.77
2017-12-22T21:21:03.795Z,103089.50
2017-12-22T21:23:29.534Z,103094.14
2017-12-22T21:25:55.306Z,103095.55
2017-12-22T21:28:21.051Z,103087.44
2017-12-22T21:30:46.814Z,103089.25
2017-12-22T21:33:12.554Z,103086.64
2017-12-22T21:35:38.306Z,103080.03
2017-12-22T21:38:04.051Z,103090.30
2017-12-22T21:40:29.837Z,103089.86
2017-12-22T21:42:55.607Z,103089.04
2017-12-22T21:45:21.376Z,103070.33
2017-12-22T21:47:47.138Z,103073.35
2017-12-22T21:50:12.895Z,103072.95
2017-12-22T21:52:38.666Z,103064.67
2017-12-22T21:55:04.431Z,103072.14
2017-12-22T21:57:30.202Z,103059.53
2017-12-22T21:59:55.959Z,103056.50
2017-12-22T22:02:21.718Z,103044.80
2017-12-22T22:04:47.470Z,103041.95
2017-12-22T22:07:13.235Z,103032.86
2017-12-22T22:09:38.987Z,103024.18
2017-12-22T22:12:04.764Z,103027.34
2017-12-22T22:14:30.515Z,103019.48
2017-12-22T22:16:56.295Z,103018.34
2017-12-22T22:19:22.047Z,103019.20
2017-12-22T22:21:47.815Z,103016.76
2017-12-22T22:24:13.588Z,103007.17
2017-12-22T22:26:39.355Z,103007.22
2017-12-22T22:29:05.120Z,103002.82
2017-12-22T22:31:30.874Z,103006.09
2017-12-22T22:33:56.626Z,103007.48
2017-12-22T22:36:22.380Z,103003.59
2017-12-22T22:38:48.138Z,102990.05
2017-12-22T22:41:13.916Z,102984.31
2017-12-22T22:43:39.695Z,102975.62
2017-12-22T22:46:05.439Z,102978.38
2017-12-22T22:48:31.188Z,102972.63
2017-12-22T22:50:56.949Z,102962.22
2017-12-22T22:53:22.715Z,102970.13
2017-12-22T22:55:48.476Z,102974.89
2017-12-22T22:58:14.241Z,102963.08
2017-12-22T23:00:40.050Z,102956.96
2017-12-22T23:03:05.815Z,102952.13
2017-12-22T23:05:31.572Z,102952.98
2017-12-22T23:07:57.343Z,102944.61
2017-12-22T23:10:23.095Z,102942.36
2017-12-22T23:12:48.876Z,102945.47
2017-12-22T23:15:14.622Z,102943.30
2017-12-22T23:17:40.369Z,102941.13
2017-12-22T23:20:06.129Z,102926.11
2017-12-22T23:22:31.892Z,102929.59
2017-12-22T23:24:57.668Z,102930.01
2017-12-22T23:27:23.424Z,102938.78
2017-12-22T23:29:49.187Z,102933.48
2017-12-22T23:32:14.943Z,102930.41
2017-12-22T23:34:40.723Z,102921.96
2017-12-22T23:37:06.475Z,102910.48
2017-12-22T23:39:32.242Z,102902.43
2017-12-22T23:41:57.987Z,102897.10
2017-12-22T23:44:23.735Z,102897.87
2017-12-22T23:46:49.475Z,102911.53
2017-12-22T23:49:15.246Z,102919.27
2017-12-22T23:51:40.980Z,102916.03
2017-12-22T23:54:06.775Z,102903.69
2017-12-22T23:56:32.519Z,102908.07
2017-12-22T23:58:58.248Z,102901.59
